createdAt,value
2018-09-02T00:02:09.181Z,14.90
2018-09-02T00:04:37.659Z,15.00
2018-09-02T00:07:06.176Z,15.00
2018-09-02T00:09:35.381Z,15.00
2018-09-02T00:12:04.973Z,15.00
2018-09-02T00:14:34.530Z,14.90
2018-09-02T00:17:03.050Z,14.90
2018-09-02T00:19:31.551Z,14.90
2018-09-02T00:22:00.030Z,14.90
2018-09-02T00:24:28.558Z,14.90
2018-09-02T00:26:57.108Z,14.90
2018-09-02T00:29:25.537Z,14.90
2018-09-02T00:31:53.986Z,14.90
2018-09-02T00:34:22.561Z,14.90
2018-09-02T00:36:51.276Z,14.90
2018-09-02T00:39:19.714Z,14.90
2018-09-02T00:41:48.157Z,14.90
2018-09-02T00:44:16.742Z,14.90
2018-09-02T00:46:45.206Z,14.80
2018-09-02T00:49:13.704Z,14.80
2018-09-02T00:51:42.223Z,14.80
2018-09-02T00:54:10.687Z,14.80
2018-09-02T00:56:39.195Z,14.80
2018-09-02T00:59:07.664Z,14.80
2018-09-02T01:01:36.128Z,14.80
2018-09-02T01:04:04.814Z,14.80
2018-09-02T01:06:33.318Z,14.80
2018-09-02T01:09:01.939Z,14.80
2018-09-02T01:11:30.444Z,14.80
2018-09-02T01:13:59.045Z,14.80
2018-09-02T01:16:27.496Z,14.80
2018-09-02T01:18:56.019Z,14.70
2018-09-02T01:21:24.501Z,14.70
2018-09-02T01:23:53.062Z,14.70
2018-09-02T01:26:21.490Z,14.70
2018-09-02T01:28:49.893Z,14.70
2018-09-02T01:31:18.355Z,14.70
2018-09-02T01:33:46.934Z,14.70
2018-09-02T01:36:15.420Z,14.70
2018-09-02T01:38:43.921Z,14.70
2018-09-02T01:41:12.388Z,14.70
2018-09-02T01:43:40.870Z,14.70
2018-09-02T01:46:09.338Z,14.70
2018-09-02T01:48:37.802Z,14.70
2018-09-02T01:51:06.352Z,14.70
2018-09-02T01:53:34.864Z,14.70
2018-09-02T01:56:03.409Z,14.70
2018-09-02T01:58:31.901Z,14.70
2018-09-02T02:01:00.403Z,14.70
2018-09-02T02:03:28.856Z,14.80
2018-09-02T02:05:57.368Z,14.70
2018-09-02T02:08:25.842Z,14.80
2018-09-02T02:10:54.404Z,14.80
2018-09-02T02:13:22.872Z,14.80
2018-09-02T02:15:51.390Z,14.80
2018-09-02T02:18:20.009Z,14.80
2018-09-02T02:20:48.510Z,14.80
2018-09-02T02:23:16.965Z,14.80
2018-09-02T02:25:45.427Z,14.70
2018-09-02T02:28:15.558Z,14.60
2018-09-02T02:30:44.044Z,14.60
2018-09-02T02:33:12.502Z,14.50
2018-09-02T02:35:41.000Z,14.40
2018-09-02T02:38:09.429Z,14.30
2018-09-02T02:40:38.007Z,14.20
2018-09-02T02:43:06.806Z,14.10
2018-09-02T02:45:35.285Z,14.00
2018-09-02T02:48:03.787Z,13.90
2018-09-02T02:50:32.301Z,13.90
2018-09-02T02:53:02.888Z,13.80
2018-09-02T02:55:32.585Z,13.70
2018-09-02T02:58:01.453Z,13.60
2018-09-02T03:00:30.275Z,13.50
2018-09-02T03:02:58.825Z,13.50
2018-09-02T03:05:27.293Z,13.40
2018-09-02T03:07:55.827Z,13.30
2018-09-02T03:10:24.295Z,13.30
2018-09-02T03:12:52.832Z,13.20
2018-09-02T03:15:21.268Z,13.20
2018-09-02T03:17:49.844Z,13.10
2018-09-02T03:20:18.288Z,13.00
2018-09-02T03:22:46.779Z,13.00
2018-09-02T03:25:15.302Z,12.90
2018-09-02T03:27:44.094Z,12.90
2018-09-02T03:30:12.573Z,12.80
2018-09-02T03:32:41.098Z,12.80
2018-09-02T03:35:09.602Z,12.80
2018-09-02T03:37:38.012Z,12.70
2018-09-02T03:40:06.697Z,12.70
2018-09-02T03:42:35.149Z,12.60
2018-09-02T03:45:03.692Z,12.60
2018-09-02T03:47:32.261Z,12.60
2018-09-02T03:50:00.821Z,12.50
2018-09-02T03:52:29.443Z,12.50
2018-09-02T03:54:57.920Z,12.40
2018-09-02T03:57:26.502Z,12.40
2018-09-02T03:59:55.983Z,12.40
2018-09-02T04:02:24.535Z,12.40
2018-09-02T04:04:53.023Z,12.40
2018-09-02T04:07:21.566Z,12.40
2018-09-02T04:09:50.048Z,12.30
2018-09-02T04:12:18.650Z,12.40
2018-09-02T04:14:47.146Z,12.30
2018-09-02T04:17:15.718Z,12.30
2018-09-02T04:19:44.180Z,12.30
2018-09-02T04:22:13.038Z,12.30
2018-09-02T04:24:41.961Z,12.30
2018-09-02T04:27:10.970Z,12.20
2018-09-02T04:29:39.393Z,12.20
2018-09-02T04:32:07.893Z,12.10
2018-09-02T04:34:36.364Z,12.10
2018-09-02T04:37:05.093Z,12.10
2018-09-02T04:39:33.593Z,12.10
2018-09-02T04:42:02.077Z,12.00
2018-09-02T04:44:30.535Z,12.00
2018-09-02T04:46:59.057Z,12.00
2018-09-02T04:49:27.565Z,12.00
2018-09-02T04:51:56.103Z,11.90
2018-09-02T04:54:24.624Z,11.90
2018-09-02T04:56:53.084Z,11.90
2018-09-02T04:59:21.515Z,11.80
2018-09-02T05:01:50.152Z,11.80
2018-09-02T05:04:18.625Z,11.80
2018-09-02T05:06:47.105Z,11.90
2018-09-02T05:09:15.709Z,11.90
2018-09-02T05:11:44.180Z,11.90
2018-09-02T05:14:12.720Z,11.90
2018-09-02T05:16:41.189Z,12.00
2018-09-02T05:19:09.686Z,12.10
2018-09-02T05:21:38.158Z,12.10
2018-09-02T05:24:06.755Z,12.20
2018-09-02T05:26:35.283Z,12.20
2018-09-02T05:29:03.888Z,12.30
2018-09-02T05:31:32.400Z,12.40
2018-09-02T05:34:00.836Z,12.50
2018-09-02T05:36:29.389Z,12.60
2018-09-02T05:38:57.856Z,12.70
2018-09-02T05:41:26.321Z,12.70
2018-09-02T05:43:54.868Z,12.80
2018-09-02T05:46:23.362Z,12.90
2018-09-02T05:48:51.881Z,13.00
2018-09-02T05:51:20.341Z,13.10
2018-09-02T05:53:48.859Z,13.30
2018-09-02T05:56:17.333Z,13.40
2018-09-02T05:58:45.918Z,13.50
2018-09-02T06:01:14.421Z,13.60
2018-09-02T06:03:42.996Z,13.80
2018-09-02T06:06:11.484Z,13.90
2018-09-02T06:08:40.097Z,14.10
2018-09-02T06:11:08.572Z,14.40
2018-09-02T06:13:37.218Z,14.80
2018-09-02T06:16:05.825Z,15.70
2018-09-02T06:18:34.424Z,16.80
2018-09-02T06:21:02.918Z,18.10
2018-09-02T06:23:31.348Z,19.20
2018-09-02T06:25:59.889Z,20.30
2018-09-02T06:28:28.404Z,21.40
2018-09-02T06:30:57.001Z,22.30
2018-09-02T06:33:25.446Z,23.20
2018-09-02T06:35:53.913Z,24.00
2018-09-02T06:38:22.416Z,24.70
2018-09-02T06:40:51.003Z,25.50
2018-09-02T06:43:19.476Z,26.10
2018-09-02T06:45:48.044Z,26.60
2018-09-02T06:48:19.150Z,27.10
2018-09-02T06:50:48.285Z,27.60
2018-09-02T06:53:17.069Z,28.10
2018-09-02T06:55:45.538Z,28.60
2018-09-02T06:58:14.079Z,29.00
2018-09-02T07:00:42.538Z,29.40
2018-09-02T07:03:11.123Z,29.60
2018-09-02T07:05:41.844Z,29.90
2018-09-02T07:08:11.763Z,30.30
2018-09-02T07:10:41.048Z,30.70
2018-09-02T07:13:09.754Z,30.90
2018-09-02T07:15:38.281Z,31.10
2018-09-02T07:18:07.078Z,31.40
2018-09-02T07:20:35.637Z,31.60
2018-09-02T07:23:05.036Z,31.80
2018-09-02T07:25:33.872Z,31.90
2018-09-02T07:28:02.441Z,32.10
2018-09-02T07:30:30.950Z,32.30
2018-09-02T07:32:59.613Z,32.70
2018-09-02T07:35:28.119Z,33.00
2018-09-02T07:37:56.737Z,33.40
2018-09-02T07:40:25.277Z,33.70
2018-09-02T07:42:53.765Z,33.70
2018-09-02T07:45:22.301Z,33.90
2018-09-02T07:47:50.916Z,34.10
2018-09-02T07:50:19.379Z,34.60
2018-09-02T07:52:47.949Z,35.00
2018-09-02T07:55:16.441Z,35.30
2018-09-02T07:57:44.921Z,35.50
2018-09-02T08:00:13.472Z,35.60
2018-09-02T08:02:41.991Z,35.80
2018-09-02T08:05:10.534Z,35.80
2018-09-02T08:07:39.074Z,36.00
2018-09-02T08:10:08.722Z,36.10
2018-09-02T08:14:01.641Z,36.10
2018-09-02T08:16:30.210Z,35.90
2018-09-02T08:18:58.775Z,34.50
2018-09-02T08:21:27.267Z,34.10
2018-09-02T08:23:55.837Z,33.60
2018-09-02T08:26:24.286Z,33.20
2018-09-02T08:28:52.871Z,32.70
2018-09-02T08:31:21.369Z,32.90
2018-09-02T08:33:49.928Z,32.60
2018-09-02T08:36:18.465Z,32.70
2018-09-02T08:38:46.973Z,32.90
2018-09-02T08:41:15.541Z,32.80
2018-09-02T08:43:44.164Z,33.20
2018-09-02T08:46:12.644Z,32.80
2018-09-02T08:48:41.425Z,32.90
2018-09-02T08:51:10.005Z,33.10
2018-09-02T08:53:38.539Z,33.10
2018-09-02T08:56:07.114Z,32.10
2018-09-02T08:58:35.552Z,31.70
2018-09-02T09:01:04.093Z,30.90
2018-09-02T09:03:32.644Z,30.10
2018-09-02T09:06:01.093Z,30.20
2018-09-02T09:08:29.872Z,30.60
2018-09-02T09:10:59.717Z,31.20
2018-09-02T09:13:28.322Z,31.50
2018-09-02T09:15:56.821Z,31.70
2018-09-02T09:18:25.461Z,32.10
2018-09-02T09:20:53.974Z,31.70
2018-09-02T09:23:29.347Z,31.70
2018-09-02T09:25:57.808Z,31.10
2018-09-02T09:28:26.294Z,30.80
2018-09-02T09:30:54.881Z,30.70
2018-09-02T09:33:23.595Z,30.90
2018-09-02T09:35:52.191Z,30.70
2018-09-02T09:38:20.911Z,31.40
2018-09-02T09:40:49.396Z,31.60
2018-09-02T09:43:17.963Z,32.00
2018-09-02T09:45:46.542Z,33.00
2018-09-02T09:48:15.094Z,33.70
2018-09-02T09:50:43.569Z,34.00
2018-09-02T09:53:12.111Z,33.80
2018-09-02T09:55:40.632Z,34.10
2018-09-02T09:58:09.069Z,34.60
2018-09-02T10:00:43.047Z,35.00
2018-09-02T10:03:11.632Z,35.20
2018-09-02T10:05:40.096Z,34.50
2018-09-02T10:08:08.580Z,33.90
2018-09-02T10:10:37.132Z,34.00
2018-09-02T10:13:05.965Z,33.70
2018-09-02T10:15:34.943Z,34.00
2018-09-02T10:18:03.567Z,33.60
2018-09-02T10:20:32.870Z,33.70
2018-09-02T10:23:02.211Z,34.40
2018-09-02T10:25:30.760Z,35.60
2018-09-02T10:27:59.653Z,35.80
2018-09-02T10:30:28.331Z,34.80
2018-09-02T10:32:57.389Z,33.70
2018-09-02T10:35:25.885Z,32.80
2018-09-02T10:37:54.426Z,31.70
2018-09-02T10:40:22.987Z,31.60
2018-09-02T10:42:51.694Z,31.90
2018-09-02T10:45:20.279Z,32.20
2018-09-02T10:47:48.795Z,31.60
2018-09-02T10:50:17.390Z,30.90
2018-09-02T10:52:45.916Z,30.40
2018-09-02T10:55:14.408Z,29.90
2018-09-02T10:57:42.897Z,29.30
2018-09-02T11:00:11.659Z,28.10
2018-09-02T11:02:40.461Z,27.50
2018-09-02T11:05:09.553Z,27.10
2018-09-02T11:07:38.154Z,26.80
2018-09-02T11:10:07.376Z,26.30
2018-09-02T11:12:35.953Z,25.90
2018-09-02T11:15:04.552Z,25.60
2018-09-02T11:17:33.014Z,25.50
2018-09-02T11:20:01.586Z,25.30
2018-09-02T11:22:30.094Z,25.20
2018-09-02T11:24:58.647Z,25.20
2018-09-02T11:27:27.198Z,25.10
2018-09-02T11:29:55.742Z,25.10
2018-09-02T11:32:24.429Z,25.10
2018-09-02T11:34:52.925Z,24.90
2018-09-02T11:37:21.383Z,25.00
2018-09-02T11:39:49.875Z,25.10
2018-09-02T11:42:18.444Z,25.20
2018-09-02T11:44:46.908Z,25.10
2018-09-02T11:47:15.404Z,25.10
2018-09-02T11:49:43.929Z,24.90
2018-09-02T11:52:12.634Z,24.90
2018-09-02T11:54:41.208Z,24.90
2018-09-02T11:57:09.676Z,24.90
2018-09-02T11:59:38.105Z,25.00
2018-09-02T12:02:06.659Z,25.10
2018-09-02T12:04:35.171Z,25.20
2018-09-02T12:07:03.797Z,25.10
2018-09-02T12:09:32.327Z,25.10
2018-09-02T12:12:01.051Z,25.20
2018-09-02T12:14:30.308Z,25.20
2018-09-02T12:16:58.839Z,25.20
2018-09-02T12:19:27.541Z,25.30
2018-09-02T12:21:56.212Z,25.00
2018-09-02T12:24:24.704Z,25.00
2018-09-02T12:26:53.333Z,25.00
2018-09-02T12:29:21.835Z,25.00
2018-09-02T12:31:50.586Z,25.00
2018-09-02T12:34:19.123Z,25.00
2018-09-02T12:36:47.654Z,25.00
2018-09-02T12:39:16.135Z,25.10
2018-09-02T12:41:44.743Z,25.10
2018-09-02T12:44:13.615Z,25.00
2018-09-02T12:46:42.179Z,25.00
2018-09-02T12:49:10.853Z,25.10
2018-09-02T12:51:39.617Z,25.00
2018-09-02T12:54:08.164Z,25.00
2018-09-02T12:56:36.790Z,25.00
2018-09-02T12:59:05.635Z,25.00
2018-09-02T13:01:34.182Z,24.90
2018-09-02T13:04:03.790Z,24.90
2018-09-02T13:06:32.366Z,25.00
2018-09-02T13:09:00.921Z,25.10
2018-09-02T13:11:29.459Z,25.30
2018-09-02T13:13:58.087Z,25.30
2018-09-02T13:16:26.567Z,25.20
2018-09-02T13:18:55.161Z,25.10
2018-09-02T13:21:23.580Z,25.10
2018-09-02T13:23:52.207Z,25.10
2018-09-02T13:26:20.579Z,25.00
2018-09-02T13:28:49.064Z,25.00
2018-09-02T13:31:17.577Z,25.00
2018-09-02T13:33:46.095Z,25.10
2018-09-02T13:36:14.633Z,25.20
2018-09-02T13:38:43.149Z,25.20
2018-09-02T13:41:11.708Z,25.20
2018-09-02T13:43:40.156Z,25.20
2018-09-02T13:46:08.697Z,25.30
2018-09-02T13:48:37.307Z,25.40
2018-09-02T13:51:06.011Z,25.30
2018-09-02T13:53:34.530Z,25.20
2018-09-02T13:56:03.169Z,25.00
2018-09-02T13:58:31.709Z,25.00
2018-09-02T14:01:00.267Z,25.00
2018-09-02T14:03:28.710Z,25.20
2018-09-02T14:05:57.220Z,25.30
2018-09-02T14:08:25.753Z,25.10
2018-09-02T14:10:54.284Z,25.10
2018-09-02T14:13:22.741Z,25.00
2018-09-02T14:15:51.277Z,25.00
2018-09-02T14:18:19.915Z,25.20
2018-09-02T14:20:48.536Z,25.10
2018-09-02T14:23:16.986Z,25.00
2018-09-02T14:25:45.624Z,25.00
2018-09-02T14:28:14.057Z,25.00
2018-09-02T14:30:42.556Z,24.90
2018-09-02T14:33:11.136Z,24.80
2018-09-02T14:35:39.741Z,24.80
2018-09-02T14:38:08.306Z,24.80
2018-09-02T14:40:36.811Z,24.80
2018-09-02T14:43:05.634Z,24.80
2018-09-02T14:45:34.262Z,25.00
2018-09-02T14:48:02.911Z,25.10
2018-09-02T14:50:31.448Z,25.10
2018-09-02T14:53:00.080Z,24.90
2018-09-02T14:55:28.573Z,24.90
2018-09-02T14:57:57.107Z,24.90
2018-09-02T15:00:25.581Z,25.00
2018-09-02T15:02:54.030Z,25.00
2018-09-02T15:05:22.638Z,25.00
2018-09-02T15:07:51.123Z,25.00
2018-09-02T15:10:19.705Z,24.90
2018-09-02T15:12:48.228Z,24.90
2018-09-02T15:15:16.996Z,24.90
2018-09-02T15:17:45.465Z,24.90
2018-09-02T15:20:14.103Z,24.90
2018-09-02T15:22:42.685Z,24.80
2018-09-02T15:25:11.173Z,24.70
2018-09-02T15:27:39.793Z,24.70
2018-09-02T15:30:08.337Z,24.70
2018-09-02T15:32:36.929Z,24.70
2018-09-02T15:35:05.597Z,24.80
2018-09-02T15:37:34.169Z,24.80
2018-09-02T15:40:02.895Z,24.80
2018-09-02T15:42:31.418Z,24.80
2018-09-02T15:45:00.115Z,24.80
2018-09-02T15:47:28.615Z,24.80
2018-09-02T15:49:57.267Z,24.80
2018-09-02T15:52:25.785Z,24.80
2018-09-02T15:54:54.375Z,24.80
2018-09-02T15:57:22.877Z,24.80
2018-09-02T15:59:51.449Z,24.80
2018-09-02T16:02:19.961Z,24.70
2018-09-02T16:04:48.451Z,24.60
2018-09-02T16:07:16.983Z,24.60
2018-09-02T16:09:45.473Z,24.60
2018-09-02T16:12:13.991Z,24.60
2018-09-02T16:14:42.585Z,24.60
2018-09-02T16:17:11.181Z,24.60
2018-09-02T16:19:39.745Z,24.60
2018-09-02T16:22:08.247Z,24.60
2018-09-02T16:24:37.036Z,24.60
2018-09-02T16:27:05.601Z,24.60
2018-09-02T16:29:34.131Z,24.60
2018-09-02T16:32:02.591Z,24.60
2018-09-02T16:34:31.117Z,24.60
2018-09-02T16:36:59.622Z,24.60
2018-09-02T16:39:28.258Z,24.60
2018-09-02T16:41:56.822Z,24.70
2018-09-02T16:44:25.294Z,24.80
2018-09-02T16:46:53.878Z,24.80
2018-09-02T16:49:22.365Z,24.90
2018-09-02T16:51:50.923Z,24.80
2018-09-02T16:54:19.352Z,24.80
2018-09-02T16:56:48.049Z,24.70
2018-09-02T16:59:16.605Z,24.60
2018-09-02T17:01:45.172Z,24.50
2018-09-02T17:04:14.253Z,24.40
2018-09-02T17:06:43.048Z,24.30
2018-09-02T17:09:13.915Z,24.20
2018-09-02T17:11:42.412Z,24.20
2018-09-02T17:14:10.987Z,24.20
2018-09-02T17:16:39.448Z,24.10
2018-09-02T17:19:18.877Z,24.00
2018-09-02T17:21:47.480Z,23.90
2018-09-02T17:24:15.942Z,23.90
2018-09-02T17:26:44.473Z,23.70
2018-09-02T17:29:13.139Z,23.60
2018-09-02T17:31:41.863Z,23.50
2018-09-02T17:34:10.408Z,23.40
2018-09-02T17:36:38.943Z,23.30
2018-09-02T17:39:09.883Z,23.30
2018-09-02T17:41:38.401Z,23.20
2018-09-02T17:44:07.248Z,23.20
2018-09-02T17:46:35.839Z,23.10
2018-09-02T17:49:04.552Z,23.00
2018-09-02T17:51:33.100Z,23.00
2018-09-02T17:54:01.606Z,23.00
2018-09-02T17:56:30.199Z,22.90
2018-09-02T17:58:58.826Z,22.80
2018-09-02T18:01:27.371Z,22.80
2018-09-02T18:03:55.833Z,22.80
2018-09-02T18:06:24.348Z,22.80
2018-09-02T18:08:52.881Z,22.80
2018-09-02T18:11:21.396Z,22.80
2018-09-02T18:13:49.989Z,22.70
2018-09-02T18:16:18.550Z,22.60
2018-09-02T18:18:48.182Z,22.60
2018-09-02T18:21:16.719Z,22.50
2018-09-02T18:23:45.493Z,22.40
2018-09-02T18:26:14.069Z,22.40
2018-09-02T18:28:44.635Z,22.30
2018-09-02T18:31:13.105Z,22.30
2018-09-02T18:33:41.993Z,22.30
2018-09-02T18:36:11.021Z,22.30
2018-09-02T18:38:39.554Z,22.20
2018-09-02T18:41:08.146Z,22.20
2018-09-02T18:43:37.136Z,22.10
2018-09-02T18:46:05.867Z,22.10
2018-09-02T18:48:34.810Z,22.10
2018-09-02T18:51:03.702Z,22.10
2018-09-02T18:53:32.813Z,22.00
2018-09-02T18:56:01.898Z,22.00
2018-09-02T18:58:30.880Z,22.00
2018-09-02T19:00:59.974Z,21.90
2018-09-02T19:03:28.867Z,21.90
2018-09-02T19:05:57.475Z,21.90
2018-09-02T19:08:26.336Z,21.90
2018-09-02T19:10:55.226Z,21.90
2018-09-02T19:13:24.114Z,21.80
2018-09-02T19:15:53.003Z,21.80
2018-09-02T19:18:21.997Z,21.70
2018-09-02T19:20:50.571Z,21.70
2018-09-02T19:23:19.365Z,21.60
2018-09-02T19:25:47.911Z,21.60
2018-09-02T19:30:51.763Z,21.60
2018-09-02T19:33:20.653Z,21.50
2018-09-02T19:35:49.202Z,21.50
2018-09-02T19:38:18.023Z,21.50
2018-09-02T19:40:46.574Z,21.40
2018-09-02T19:43:15.074Z,21.30
2018-09-02T19:45:43.878Z,21.30
2018-09-02T19:48:19.173Z,21.20
2018-09-02T19:50:47.774Z,21.20
2018-09-02T19:53:16.415Z,21.10
2018-09-02T19:55:45.136Z,21.10
2018-09-02T19:58:13.801Z,21.10
2018-09-02T20:00:42.610Z,21.10
2018-09-02T20:03:11.108Z,21.10
2018-09-02T20:05:39.580Z,21.00
2018-09-02T20:08:08.053Z,21.00
2018-09-02T20:10:36.526Z,21.00
2018-09-02T20:13:05.077Z,21.00
2018-09-02T20:15:33.668Z,21.00
2018-09-02T20:18:02.560Z,21.00
2018-09-02T20:20:31.067Z,20.90
2018-09-02T20:22:59.602Z,20.80
2018-09-02T20:25:28.085Z,20.80
2018-09-02T20:27:56.567Z,20.80
2018-09-02T20:30:25.143Z,20.70
2018-09-02T20:32:53.640Z,20.70
2018-09-02T20:35:22.234Z,20.70
2018-09-02T20:37:50.731Z,20.60
2018-09-02T20:40:19.237Z,20.50
2018-09-02T20:42:48.574Z,20.50
2018-09-02T20:45:17.151Z,20.50
2018-09-02T20:47:45.691Z,20.50
2018-09-02T20:50:14.226Z,20.50
2018-09-02T20:52:42.679Z,20.50
2018-09-02T20:55:11.251Z,20.50
2018-09-02T20:57:39.904Z,20.50
2018-09-02T21:00:08.490Z,20.50
2018-09-02T21:02:37.020Z,20.50
2018-09-02T21:05:05.641Z,20.50
2018-09-02T21:07:34.275Z,20.40
2018-09-02T21:10:02.836Z,20.40
2018-09-02T21:12:31.330Z,20.40
2018-09-02T21:14:59.859Z,20.30
2018-09-02T21:17:28.352Z,20.30
2018-09-02T21:19:56.799Z,20.30
2018-09-02T21:22:25.508Z,20.20
2018-09-02T21:24:54.061Z,20.20
2018-09-02T21:27:22.676Z,20.20
2018-09-02T21:29:51.152Z,20.20
2018-09-02T21:32:19.651Z,20.20
2018-09-02T21:34:48.098Z,20.20
2018-09-02T21:37:16.545Z,20.20
2018-09-02T21:39:45.012Z,20.20
2018-09-02T21:42:13.469Z,20.20
2018-09-02T21:44:41.910Z,20.20
2018-09-02T21:47:10.420Z,20.20
2018-09-02T21:49:38.887Z,20.20
2018-09-02T21:52:07.433Z,20.20
2018-09-02T21:54:35.884Z,20.10
2018-09-02T21:57:04.436Z,20.10
2018-09-02T21:59:32.926Z,20.10
2018-09-02T22:02:01.942Z,20.10
2018-09-02T22:04:30.453Z,20.10
2018-09-02T22:06:58.908Z,20.00
2018-09-02T22:09:27.532Z,20.00
2018-09-02T22:11:56.118Z,19.90
2018-09-02T22:14:24.865Z,20.00
2018-09-02T22:16:53.385Z,19.90
2018-09-02T22:19:22.136Z,19.90
2018-09-02T22:21:50.617Z,19.90
2018-09-02T22:24:19.211Z,19.90
2018-09-02T22:26:47.672Z,19.80
2018-09-02T22:29:16.155Z,19.80
2018-09-02T22:31:44.642Z,19.80
2018-09-02T22:34:13.088Z,19.80
2018-09-02T22:36:41.545Z,19.80
2018-09-02T22:39:10.027Z,19.80
2018-09-02T22:41:38.541Z,19.80
2018-09-02T22:44:07.086Z,19.80
2018-09-02T22:46:36.437Z,19.80
2018-09-02T22:49:06.844Z,19.80
2018-09-02T22:51:35.304Z,19.80
2018-09-02T22:54:03.773Z,19.80
2018-09-02T22:56:32.228Z,19.80
2018-09-02T22:59:00.855Z,19.80
2018-09-02T23:01:29.557Z,19.80
2018-09-02T23:03:58.034Z,19.80
2018-09-02T23:06:26.517Z,19.70
2018-09-02T23:08:54.972Z,19.70
2018-09-02T23:11:23.451Z,19.70
2018-09-02T23:13:52.064Z,19.70
2018-09-02T23:16:20.545Z,19.60
2018-09-02T23:18:48.981Z,19.60
2018-09-02T23:21:17.433Z,19.60
2018-09-02T23:23:45.940Z,19.60
2018-09-02T23:26:14.505Z,19.70
2018-09-02T23:28:43.041Z,19.60
2018-09-02T23:31:11.557Z,19.60
2018-09-02T23:33:40.079Z,19.60
2018-09-02T23:36:08.552Z,19.50
2018-09-02T23:38:37.002Z,19.50
2018-09-02T23:41:05.848Z,19.50
2018-09-02T23:43:34.438Z,19.50
2018-09-02T23:46:02.911Z,19.40
2018-09-02T23:48:31.378Z,19.40
2018-09-02T23:50:59.809Z,19.30
2018-09-02T23:53:28.375Z,19.30
2018-09-02T23:55:56.864Z,19.20
2018-09-02T23:58:25.354Z,19.20
